Terminal Aerodrome Forecast
Issued by NWS North Platte, NE

Home | Current Version | Previous Version | Text Only | Print | Product List | Glossary On
Versions: 1 2 3 4 5 6 7 8 9 10 11 12 13 14 15 16 17 18 19 20 21 22 23 24 25 26 27 28 29
000
FTUS43 KLBF 291738
TAFVTN
TAF
KVTN 291738Z 2918/3018 16008KT P6SM BKN030 OVC040
     FM292200 14010KT P6SM VCTS BKN020 OVC040CB
     FM300400 15006KT P6SM BKN060 OVC090
     FM301000 18010KT P6SM OVC020
     FM301600 18010KT P6SM SCT020 BKN060=

USA.gov is the U.S. government's official web portal to all federal, state and local government web resources and services.